Time;durP1;ratioP1;P1;durP2;ratioP2;P2;SDS_P1;SDS_P2;PMS_P1;PMS_P2;Temp;Humidity;BMP_temperature;BMP_pressure;BME280_temperature;BME280_humidity;BME280_pressure;Samples;Min_cycle;Max_cycle;Signal;HPM_P1;HPM_P2
2022/10/31 00:00:51;;;;;;;19.08;11.48;;;;;;;;;;5056156;28;20036;-85
2022/10/31 00:03:17;;;;;;;19.83;11.88;;;;;;;;;;5040682;28;20036;-85
2022/10/31 00:05:47;;;;;;;17.60;10.95;;;;;;;;;;5049622;28;20158;-85
2022/10/31 00:08:13;;;;;;;18.02;11.27;;;;;;;;;;5043339;28;20072;-85
2022/10/31 00:10:40;;;;;;;19.02;10.93;;;;;;;;;;5049134;28;20032;-85
2022/10/31 00:13:09;;;;;;;17.85;10.70;;;;;;;;;;5047251;28;20048;-86
2022/10/31 00:15:36;;;;;;;17.20;10.45;;;;;;;;;;5063882;28;20119;-86
2022/10/31 00:18:02;;;;;;;18.40;11.20;;;;;;;;;;5053646;28;20047;-85
2022/10/31 00:20:27;;;;;;;19.70;10.90;;;;;;;;;;5049933;28;20028;-86
2022/10/31 00:22:55;;;;;;;18.10;11.63;;;;;;;;;;5050795;28;20086;-86
2022/10/31 00:25:20;;;;;;;20.23;11.02;;;;;;;;;;5045819;28;20050;-86
2022/10/31 00:27:46;;;;;;;17.50;11.25;;;;;;;;;;5046427;28;20048;-85
2022/10/31 00:30:14;;;;;;;19.92;12.63;;;;;;;;;;5051798;28;20111;-85
2022/10/31 00:32:39;;;;;;;19.15;11.48;;;;;;;;;;5051802;28;20032;-85
2022/10/31 00:35:05;;;;;;;20.23;11.73;;;;;;;;;;5053940;28;20047;-85
2022/10/31 00:37:31;;;;;;;20.48;12.07;;;;;;;;;;5044355;28;20040;-85
2022/10/31 00:39:56;;;;;;;16.98;11.63;;;;;;;;;;5080515;28;20028;-85
2022/10/31 00:42:22;;;;;;;20.02;11.68;;;;;;;;;;5063061;28;20028;-85
2022/10/31 00:44:47;;;;;;;20.58;11.57;;;;;;;;;;5044978;28;20043;-86
2022/10/31 00:47:13;;;;;;;18.42;11.25;;;;;;;;;;5053491;28;20857;-85
2022/10/31 00:49:38;;;;;;;20.65;11.95;;;;;;;;;;5045562;28;20491;-85
2022/10/31 00:52:03;;;;;;;19.58;11.27;;;;;;;;;;5046152;28;20502;-85
2022/10/31 00:54:30;;;;;;;18.80;11.48;;;;;;;;;;5045539;28;20514;-86
2022/10/31 00:56:56;;;;;;;19.20;11.37;;;;;;;;;;5046905;28;20119;-85
2022/10/31 00:59:22;;;;;;;19.13;11.68;;;;;;;;;;5095789;28;20483;-85
2022/10/31 01:01:47;;;;;;;17.27;11.38;;;;;;;;;;5042540;28;20033;-85
2022/10/31 01:04:13;;;;;;;17.33;11.77;;;;;;;;;;5042337;28;20101;-85
2022/10/31 01:06:38;;;;;;;17.08;11.07;;;;;;;;;;5047648;28;20115;-85
2022/10/31 01:09:03;;;;;;;15.68;10.55;;;;;;;;;;5062083;28;20393;-85
2022/10/31 01:11:29;;;;;;;15.77;10.43;;;;;;;;;;5043359;28;20484;-85
2022/10/31 01:13:54;;;;;;;17.23;10.10;;;;;;;;;;5074054;28;20032;-85
2022/10/31 01:16:22;;;;;;;16.52;10.60;;;;;;;;;;5057129;28;20047;-85
2022/10/31 01:18:48;;;;;;;16.17;10.20;;;;;;;;;;5061290;28;20041;-85
2022/10/31 01:21:25;;;;;;;16.45;10.00;;;;;;;;;;5046562;28;20050;-85
2022/10/31 01:23:53;;;;;;;15.48;9.93;;;;;;;;;;5044818;28;20476;-85
2022/10/31 01:26:22;;;;;;;;;;;;;;;;;;5049457;28;20121;-85
2022/10/31 01:28:53;;;;;;;18.33;10.73;;;;;;;;;;5061375;28;19961;-84
2022/10/31 01:31:24;;;;;;;17.80;11.38;;;;;;;;;;5051027;28;20043;-85
2022/10/31 01:33:49;;;;;;;15.70;10.15;;;;;;;;;;5078717;28;20063;-85
2022/10/31 01:36:18;;;;;;;19.88;10.45;;;;;;;;;;5034019;28;20499;-85
2022/10/31 01:38:45;;;;;;;17.50;10.32;;;;;;;;;;5024290;28;20529;-85
2022/10/31 01:41:12;;;;;;;13.80;9.50;;;;;;;;;;5042922;28;20036;-85
2022/10/31 01:44:16;;;;;;;17.48;10.18;;;;;;;;;;5043452;28;20036;-85
2022/10/31 01:46:45;;;;;;;19.10;10.52;;;;;;;;;;5058734;28;20400;-85
2022/10/31 01:49:16;;;;;;;17.08;10.15;;;;;;;;;;5057794;28;20105;-85
2022/10/31 01:51:46;;;;;;;16.80;10.10;;;;;;;;;;5082689;28;20039;-85
2022/10/31 01:54:15;;;;;;;18.38;10.43;;;;;;;;;;5050764;28;20123;-83
2022/10/31 01:56:42;;;;;;;14.55;9.95;;;;;;;;;;5041896;28;20622;-84
2022/10/31 01:59:10;;;;;;;18.15;11.27;;;;;;;;;;5066473;28;20044;-84
2022/10/31 02:01:37;;;;;;;17.83;11.55;;;;;;;;;;5032305;28;20740;-84
2022/10/31 02:04:02;;;;;;;14.60;10.25;;;;;;;;;;5067142;28;20589;-84
2022/10/31 02:06:43;;;;;;;15.98;10.70;;;;;;;;;;5037055;28;20029;-84
2022/10/31 02:09:08;;;;;;;16.45;10.57;;;;;;;;;;5060225;28;20049;-83
2022/10/31 02:11:34;;;;;;;17.65;10.93;;;;;;;;;;5066711;28;20507;-84
2022/10/31 02:14:02;;;;;;;17.58;11.43;;;;;;;;;;5049800;28;20107;-83
2022/10/31 02:16:27;;;;;;;18.48;9.98;;;;;;;;;;5040148;28;20024;-83
2022/10/31 02:18:53;;;;;;;18.50;10.70;;;;;;;;;;5075450;28;20920;-84
2022/10/31 02:21:37;;;;;;;13.20;9.32;;;;;;;;;;5054990;28;20090;-84
2022/10/31 02:24:24;;;;;;;17.15;10.30;;;;;;;;;;5073665;28;20033;-83
2022/10/31 02:27:02;;;;;;;17.38;10.48;;;;;;;;;;5063178;28;20503;-84
2022/10/31 02:29:49;;;;;;;18.20;10.55;;;;;;;;;;5051670;28;20551;-83
2022/10/31 02:32:25;;;;;;;16.58;10.00;;;;;;;;;;5085492;28;20051;-84
2022/10/31 02:35:12;;;;;;;18.73;11.07;;;;;;;;;;5058230;28;20115;-83
2022/10/31 02:37:38;;;;;;;17.07;10.50;;;;;;;;;;5054001;28;20028;-83
2022/10/31 02:40:30;;;;;;;16.98;10.18;;;;;;;;;;5056556;28;20273;-83
2022/10/31 02:43:20;;;;;;;17.70;10.48;;;;;;;;;;5069771;28;20079;-83
2022/10/31 02:46:23;;;;;;;15.90;10.25;;;;;;;;;;5035829;28;20085;-84
2022/10/31 02:48:51;;;;;;;16.52;10.45;;;;;;;;;;5029252;28;20104;-84
2022/10/31 02:51:16;;;;;;;;;;;;;;;;;;5064838;28;20042;-84
2022/10/31 02:53:41;;;;;;;22.00;10.73;;;;;;;;;;5029918;28;19920;-84
2022/10/31 02:56:17;;;;;;;20.25;11.23;;;;;;;;;;5063592;28;20366;-83
2022/10/31 02:58:49;;;;;;;18.80;10.82;;;;;;;;;;5041092;28;20033;-84
2022/10/31 03:01:23;;;;;;;18.48;10.98;;;;;;;;;;5039449;28;20430;-83
2022/10/31 03:04:06;;;;;;;17.02;10.35;;;;;;;;;;5088675;28;20120;-84
2022/10/31 03:07:01;;;;;;;15.27;10.38;;;;;;;;;;5052182;28;20488;-84
2022/10/31 03:09:29;;;;;;;20.08;10.93;;;;;;;;;;5040693;28;20045;-84
2022/10/31 03:11:59;;;;;;;19.40;11.55;;;;;;;;;;5054427;28;20041;-84
2022/10/31 03:14:34;;;;;;;15.30;10.02;;;;;;;;;;5083271;28;20407;-83
2022/10/31 03:17:03;;;;;;;18.23;11.30;;;;;;;;;;5069782;28;20550;-83
2022/10/31 03:19:33;;;;;;;17.70;10.90;;;;;;;;;;5070041;28;20850;-84
2022/10/31 03:22:16;;;;;;;16.65;11.00;;;;;;;;;;5069072;28;20036;-84
2022/10/31 03:24:43;;;;;;;17.05;11.00;;;;;;;;;;5038268;28;20502;-84
2022/10/31 03:27:10;;;;;;;19.02;10.15;;;;;;;;;;5061412;28;20094;-85
2022/10/31 03:29:37;;;;;;;16.52;10.50;;;;;;;;;;5036668;28;20040;-85
2022/10/31 03:32:09;;;;;;;17.27;10.27;;;;;;;;;;5034033;28;20033;-84
2022/10/31 03:34:36;;;;;;;15.48;10.20;;;;;;;;;;5046224;28;20036;-84
2022/10/31 03:37:05;;;;;;;14.55;9.90;;;;;;;;;;5070182;28;20036;-84
2022/10/31 03:39:30;;;;;;;17.73;9.10;;;;;;;;;;5048267;28;20436;-84
2022/10/31 03:42:04;;;;;;;17.90;10.18;;;;;;;;;;5056880;28;20112;-84
2022/10/31 03:44:32;;;;;;;18.88;10.70;;;;;;;;;;5090909;28;20123;-84
2022/10/31 03:47:00;;;;;;;17.23;10.18;;;;;;;;;;5041904;28;20032;-84
2022/10/31 03:49:26;;;;;;;14.85;9.88;;;;;;;;;;5049038;28;20098;-84
2022/10/31 03:51:57;;;;;;;16.23;10.18;;;;;;;;;;5090196;28;20543;-84
2022/10/31 03:54:45;;;;;;;16.13;10.18;;;;;;;;;;5088397;28;20430;-84
2022/10/31 03:57:43;;;;;;;19.02;10.23;;;;;;;;;;5063787;28;20075;-84
2022/10/31 04:00:11;;;;;;;14.93;9.98;;;;;;;;;;5041052;28;20491;-84
2022/10/31 04:02:41;;;;;;;16.35;9.68;;;;;;;;;;5073231;28;20136;-84
2022/10/31 04:05:08;;;;;;;14.95;9.43;;;;;;;;;;5048531;28;20045;-84
2022/10/31 04:07:37;;;;;;;18.92;10.10;;;;;;;;;;5043466;28;20032;-84
2022/10/31 04:10:05;;;;;;;16.90;10.32;;;;;;;;;;5048590;28;20399;-83
2022/10/31 04:12:34;;;;;;;15.52;9.13;;;;;;;;;;5045834;28;20492;-83
2022/10/31 04:15:02;;;;;;;14.35;9.90;;;;;;;;;;5047377;28;20094;-83
2022/10/31 04:17:29;;;;;;;14.95;9.75;;;;;;;;;;5047958;28;20036;-84
2022/10/31 04:19:55;;;;;;;14.52;9.60;;;;;;;;;;5040764;28;20040;-84
2022/10/31 04:22:20;;;;;;;17.17;9.93;;;;;;;;;;5042937;28;20037;-83
2022/10/31 04:24:45;;;;;;;17.77;9.57;;;;;;;;;;5056410;28;20068;-84
2022/10/31 04:27:11;;;;;;;16.85;9.48;;;;;;;;;;5054258;28;20047;-83
2022/10/31 04:29:36;;;;;;;17.58;10.13;;;;;;;;;;5054318;28;20039;-83
2022/10/31 04:32:01;;;;;;;16.10;9.35;;;;;;;;;;5038406;28;20029;-84
2022/10/31 04:34:27;;;;;;;17.98;9.55;;;;;;;;;;5037330;28;20047;-83
2022/10/31 04:36:52;;;;;;;14.40;8.55;;;;;;;;;;5046320;28;20037;-83
2022/10/31 04:39:17;;;;;;;15.57;8.82;;;;;;;;;;5039676;28;20037;-83
2022/10/31 04:41:46;;;;;;;15.20;9.07;;;;;;;;;;5046526;28;20044;-83
2022/10/31 04:44:11;;;;;;;15.05;9.10;;;;;;;;;;5047385;28;20128;-84
2022/10/31 04:46:36;;;;;;;13.98;8.60;;;;;;;;;;5040927;28;20119;-83
2022/10/31 04:49:02;;;;;;;14.98;9.68;;;;;;;;;;5041932;28;20033;-83
2022/10/31 04:51:27;;;;;;;14.27;8.90;;;;;;;;;;5045440;28;20037;-83
2022/10/31 04:53:52;;;;;;;13.80;9.70;;;;;;;;;;5043420;28;20551;-84
2022/10/31 04:56:18;;;;;;;16.02;9.45;;;;;;;;;;5044206;28;20052;-83
2022/10/31 04:58:43;;;;;;;13.75;9.32;;;;;;;;;;5052375;28;20037;-84
2022/10/31 05:01:09;;;;;;;14.68;8.85;;;;;;;;;;5072833;28;20052;-83
2022/10/31 05:03:34;;;;;;;15.00;8.88;;;;;;;;;;5054681;28;20029;-84
2022/10/31 05:05:59;;;;;;;15.32;9.80;;;;;;;;;;5053400;28;20116;-84
2022/10/31 05:08:25;;;;;;;12.80;8.52;;;;;;;;;;5052858;28;20126;-84
2022/10/31 05:10:51;;;;;;;13.93;8.48;;;;;;;;;;5087877;28;20193;-83
2022/10/31 05:13:17;;;;;;;11.88;7.90;;;;;;;;;;5039174;28;20497;-84
2022/10/31 05:15:42;;;;;;;14.05;8.95;;;;;;;;;;5041571;28;20063;-84
2022/10/31 05:18:08;;;;;;;15.13;8.57;;;;;;;;;;5039712;28;20422;-84
2022/10/31 05:20:33;;;;;;;15.00;9.18;;;;;;;;;;5045543;28;20033;-84
2022/10/31 05:22:59;;;;;;;16.35;8.73;;;;;;;;;;5052799;28;20086;-84
2022/10/31 05:25:26;;;;;;;15.27;8.90;;;;;;;;;;5070108;28;20029;-84
2022/10/31 05:27:53;;;;;;;14.82;8.75;;;;;;;;;;5070068;28;20039;-84
2022/10/31 05:30:22;;;;;;;14.63;8.90;;;;;;;;;;5056533;28;20028;-84
2022/10/31 05:32:54;;;;;;;16.23;9.07;;;;;;;;;;5051342;28;20589;-84
2022/10/31 05:35:23;;;;;;;12.68;8.38;;;;;;;;;;5053469;28;20802;-84
2022/10/31 05:37:49;;;;;;;15.65;8.15;;;;;;;;;;5038926;28;20571;-84
2022/10/31 05:40:17;;;;;;;18.92;10.77;;;;;;;;;;5049683;28;20132;-83
2022/10/31 05:42:43;;;;;;;15.93;9.95;;;;;;;;;;5068559;28;20395;-84
2022/10/31 05:45:10;;;;;;;17.35;10.02;;;;;;;;;;5039157;28;20053;-84
2022/10/31 05:47:36;;;;;;;15.25;8.88;;;;;;;;;;5035674;28;20040;-84
2022/10/31 05:50:01;;;;;;;16.95;9.35;;;;;;;;;;5055094;28;20037;-83
2022/10/31 05:52:26;;;;;;;16.85;8.88;;;;;;;;;;5039722;28;20037;-83
2022/10/31 05:54:54;;;;;;;16.33;9.65;;;;;;;;;;5045381;28;20040;-83
2022/10/31 05:57:22;;;;;;;14.82;8.85;;;;;;;;;;5038881;28;20124;-83
2022/10/31 05:59:48;;;;;;;15.38;8.90;;;;;;;;;;5039056;28;20036;-83
2022/10/31 06:02:13;;;;;;;13.85;8.57;;;;;;;;;;5036456;28;20029;-90
2022/10/31 06:04:38;;;;;;;15.85;9.20;;;;;;;;;;5051595;28;20057;-90
2022/10/31 06:07:04;;;;;;;16.80;9.43;;;;;;;;;;5038827;28;20129;-91
2022/10/31 06:09:29;;;;;;;12.73;8.35;;;;;;;;;;5041275;28;20488;-90
2022/10/31 06:11:54;;;;;;;13.25;8.60;;;;;;;;;;5071592;28;20126;-91
2022/10/31 06:14:20;;;;;;;15.98;8.90;;;;;;;;;;5046160;28;20384;-90
2022/10/31 06:16:45;;;;;;;13.82;8.32;;;;;;;;;;5051611;28;20060;-90
2022/10/31 06:19:10;;;;;;;16.63;8.88;;;;;;;;;;5039170;28;20041;-89
2022/10/31 06:21:36;;;;;;;18.25;9.43;;;;;;;;;;5052449;28;20086;-90
2022/10/31 06:24:01;;;;;;;15.60;9.32;;;;;;;;;;5053885;28;20033;-89
2022/10/31 06:26:27;;;;;;;15.18;8.48;;;;;;;;;;5035914;28;20033;-89
2022/10/31 06:28:52;;;;;;;15.40;8.85;;;;;;;;;;5075503;28;20028;-91
2022/10/31 06:31:17;;;;;;;12.20;8.52;;;;;;;;;;5044816;28;20071;-91
2022/10/31 06:33:43;;;;;;;13.43;8.73;;;;;;;;;;5040055;28;20096;-92
2022/10/31 06:36:09;;;;;;;14.00;8.50;;;;;;;;;;5046018;28;20087;-90
2022/10/31 06:38:34;;;;;;;11.85;8.35;;;;;;;;;;5072308;28;20033;-91
2022/10/31 06:41:04;;;;;;;16.33;8.30;;;;;;;;;;5039319;28;20051;-90
2022/10/31 06:43:30;;;;;;;16.27;8.50;;;;;;;;;;5073967;28;20041;-89
2022/10/31 06:45:55;;;;;;;16.52;9.25;;;;;;;;;;5052475;28;20040;-89
2022/10/31 06:48:21;;;;;;;14.65;9.10;;;;;;;;;;5037560;28;20314;-89
2022/10/31 06:50:46;;;;;;;21.08;10.82;;;;;;;;;;5035135;28;20036;-89
2022/10/31 06:53:13;;;;;;;15.90;9.10;;;;;;;;;;5037987;28;20385;-89
2022/10/31 06:55:39;;;;;;;15.15;8.85;;;;;;;;;;5051058;28;20109;-90
2022/10/31 06:58:05;;;;;;;15.80;9.23;;;;;;;;;;5051349;28;20443;-90
2022/10/31 07:00:30;;;;;;;15.35;8.80;;;;;;;;;;5061780;28;20028;-92
2022/10/31 07:03:06;;;;;;;13.55;8.05;;;;;;;;;;5037774;28;20036;-90
2022/10/31 07:05:32;;;;;;;13.88;8.80;;;;;;;;;;5044608;28;20032;-91
2022/10/31 07:07:59;;;;;;;16.33;8.60;;;;;;;;;;5040516;28;20086;-91
2022/10/31 07:10:27;;;;;;;14.52;8.77;;;;;;;;;;5040459;28;20047;-90
2022/10/31 07:12:59;;;;;;;15.60;8.98;;;;;;;;;;5074860;28;20045;-91
2022/10/31 07:15:26;;;;;;;21.05;9.45;;;;;;;;;;5036849;28;20036;-90
2022/10/31 07:17:52;;;;;;;17.10;8.88;;;;;;;;;;5075649;28;20040;-90
2022/10/31 07:20:17;;;;;;;14.82;8.63;;;;;;;;;;5046806;28;20103;-87
2022/10/31 07:22:43;;;;;;;15.13;9.32;;;;;;;;;;5036729;28;20114;-88
2022/10/31 07:25:09;;;;;;;15.77;9.30;;;;;;;;;;5075189;28;20047;-87
2022/10/31 07:27:38;;;;;;;19.25;9.63;;;;;;;;;;5041537;28;20046;-87
2022/10/31 07:30:04;;;;;;;15.35;8.27;;;;;;;;;;5052121;28;20434;-86
2022/10/31 07:32:43;;;;;;;15.23;8.50;;;;;;;;;;5072258;28;20032;-87
2022/10/31 07:35:11;;;;;;;15.75;8.35;;;;;;;;;;5071325;28;20036;-87
2022/10/31 07:37:36;;;;;;;13.45;8.02;;;;;;;;;;5038192;28;20063;-87
2022/10/31 07:40:03;;;;;;;12.55;8.18;;;;;;;;;;5074608;28;20426;-88
2022/10/31 07:42:29;;;;;;;16.67;9.07;;;;;;;;;;5041768;28;20036;-87
2022/10/31 07:44:54;;;;;;;15.25;8.43;;;;;;;;;;5040949;28;20043;-87
2022/10/31 07:47:20;;;;;;;17.17;8.82;;;;;;;;;;5040942;28;20033;-87
2022/10/31 07:49:45;;;;;;;16.00;8.25;;;;;;;;;;5073384;28;20500;-87
2022/10/31 07:52:10;;;;;;;11.43;7.57;;;;;;;;;;5040325;28;20507;-87
2022/10/31 07:54:36;;;;;;;11.90;7.55;;;;;;;;;;5043544;28;20506;-87
2022/10/31 07:57:01;;;;;;;14.60;7.57;;;;;;;;;;5041992;28;20059;-88
2022/10/31 07:59:27;;;;;;;13.65;7.72;;;;;;;;;;5070313;28;20039;-86
2022/10/31 08:01:55;;;;;;;14.90;8.18;;;;;;;;;;5035188;28;20051;-86
2022/10/31 08:04:24;;;;;;;12.38;7.38;;;;;;;;;;5090780;23;20045;-86
2022/10/31 08:06:50;;;;;;;14.88;7.45;;;;;;;;;;5035747;28;20047;-87
2022/10/31 08:09:15;;;;;;;15.88;7.72;;;;;;;;;;5036548;28;20025;-85
2022/10/31 08:11:40;;;;;;;15.65;9.25;;;;;;;;;;5036987;28;21091;-84
2022/10/31 08:14:06;;;;;;;15.27;8.75;;;;;;;;;;5030989;28;20036;-86
2022/10/31 08:16:31;;;;;;;17.05;8.80;;;;;;;;;;5035295;28;20100;-85
2022/10/31 08:18:56;;;;;;;20.73;9.25;;;;;;;;;;5018870;28;20043;-86
2022/10/31 08:21:22;;;;;;;17.73;8.95;;;;;;;;;;5031052;28;20040;-85
2022/10/31 08:23:47;;;;;;;17.17;9.68;;;;;;;;;;5032634;28;20037;-85
2022/10/31 08:26:13;;;;;;;19.13;9.88;;;;;;;;;;5023301;28;20117;-86
2022/10/31 08:28:39;;;;;;;17.25;9.70;;;;;;;;;;5028713;28;20028;-85
2022/10/31 08:31:05;;;;;;;14.07;9.65;;;;;;;;;;5024262;28;20032;-83
2022/10/31 08:33:31;;;;;;;17.05;9.38;;;;;;;;;;5031172;28;20503;-83
2022/10/31 08:35:58;;;;;;;16.65;9.25;;;;;;;;;;5030847;28;20055;-83
2022/10/31 08:38:23;;;;;;;13.93;8.40;;;;;;;;;;5031460;28;20037;-85
2022/10/31 08:40:49;;;;;;;17.95;9.98;;;;;;;;;;5040180;28;20040;-88
2022/10/31 08:43:15;;;;;;;17.23;9.52;;;;;;;;;;5028344;28;20072;-87
2022/10/31 08:45:42;;;;;;;18.83;9.55;;;;;;;;;;5030753;28;20720;-87
2022/10/31 08:48:09;;;;;;;17.65;9.73;;;;;;;;;;5018696;28;20556;-86
2022/10/31 08:50:41;;;;;;;15.05;9.43;;;;;;;;;;5037304;28;20115;-86
2022/10/31 08:53:16;;;;;;;18.65;10.18;;;;;;;;;;5025039;28;20485;-86
2022/10/31 08:55:43;;;;;;;17.70;10.05;;;;;;;;;;5016455;28;20393;-88
2022/10/31 08:58:26;;;;;;;19.02;10.77;;;;;;;;;;5031678;28;20041;-90
2022/10/31 09:00:56;;;;;;;17.83;10.02;;;;;;;;;;5030247;28;20033;-86
2022/10/31 09:03:27;;;;;;;18.08;10.27;;;;;;;;;;5037467;28;20032;-82
2022/10/31 09:06:00;;;;;;;19.48;10.57;;;;;;;;;;5037808;28;20064;-82
2022/10/31 09:08:28;;;;;;;16.48;10.73;;;;;;;;;;5048798;28;20108;-82
2022/10/31 09:10:56;;;;;;;18.70;11.05;;;;;;;;;;5026556;28;20476;-82
2022/10/31 09:13:21;;;;;;;;;;;;;;;;;;5021257;28;20660;-82
2022/10/31 09:15:48;;;;;;;19.00;10.57;;;;;;;;;;5031297;28;19963;-82
2022/10/31 09:18:15;;;;;;;20.83;10.65;;;;;;;;;;5021747;28;20036;-83
2022/10/31 09:20:42;;;;;;;17.67;11.88;;;;;;;;;;5026825;28;20098;-82
2022/10/31 09:23:26;;;;;;;18.73;11.38;;;;;;;;;;5020424;28;20579;-82
2022/10/31 09:25:52;;;;;;;18.33;10.65;;;;;;;;;;5020486;28;20504;-82
2022/10/31 09:28:20;;;;;;;19.05;11.60;;;;;;;;;;5033461;28;20108;-83
2022/10/31 09:30:46;;;;;;;;;;;;;;;;;;5023524;28;20040;-82
2022/10/31 09:33:12;;;;;;;18.13;11.15;;;;;;;;;;5037686;28;19920;-82
2022/10/31 09:35:38;;;;;;;19.25;11.13;;;;;;;;;;5029237;28;20037;-82
2022/10/31 09:38:13;;;;;;;19.33;10.88;;;;;;;;;;5021300;28;20029;-81
2022/10/31 09:40:47;;;;;;;20.55;11.25;;;;;;;;;;5019975;28;20037;-82
2022/10/31 09:43:31;;;;;;;21.75;11.65;;;;;;;;;;5019939;28;20045;-82
2022/10/31 09:46:18;;;;;;;19.02;10.35;;;;;;;;;;5046027;28;20035;-82
2022/10/31 09:48:56;;;;;;;19.17;10.98;;;;;;;;;;5029504;28;20068;-82
2022/10/31 09:51:48;;;;;;;19.23;10.85;;;;;;;;;;5037984;28;20089;-83
2022/10/31 09:54:20;;;;;;;21.55;11.55;;;;;;;;;;5020682;28;20048;-82
2022/10/31 09:56:46;;;;;;;17.88;10.85;;;;;;;;;;5022501;28;20033;-83
2022/10/31 09:59:34;;;;;;;20.15;10.77;;;;;;;;;;5041209;28;20098;-81
2022/10/31 10:02:03;;;;;;;18.88;11.15;;;;;;;;;;5025585;28;20362;-79
2022/10/31 10:04:47;;;;;;;19.58;11.32;;;;;;;;;;5044477;28;20048;-80
2022/10/31 10:07:44;;;;;;;20.38;10.82;;;;;;;;;;5045725;28;20045;-80
2022/10/31 10:10:24;;;;;;;;;;;;;;;;;;5042335;28;20037;-81
2022/10/31 10:13:11;;;;;;;18.65;10.50;;;;;;;;;;5052510;28;19923;-79
2022/10/31 10:15:39;;;;;;;18.10;10.65;;;;;;;;;;5020618;28;20535;-81
2022/10/31 10:18:11;;;;;;;19.30;11.55;;;;;;;;;;5047511;28;20029;-79
2022/10/31 10:21:00;;;;;;;18.23;10.43;;;;;;;;;;5047338;28;20028;-79
2022/10/31 10:24:04;;;;;;;19.58;11.00;;;;;;;;;;5041535;28;20068;-79
2022/10/31 10:26:36;;;;;;;19.48;11.48;;;;;;;;;;5018832;28;20036;-79
2022/10/31 10:29:06;;;;;;;19.02;11.30;;;;;;;;;;5025206;28;20153;-79
2022/10/31 10:31:38;;;;;;;19.80;10.77;;;;;;;;;;5034713;28;20083;-79
2022/10/31 10:34:08;;;;;;;19.00;10.57;;;;;;;;;;5021255;28;20035;-81
2022/10/31 10:36:51;;;;;;;17.63;10.27;;;;;;;;;;5033209;28;20042;-79
2022/10/31 10:39:30;;;;;;;19.35;10.18;;;;;;;;;;5033288;28;20036;-79
2022/10/31 10:47:43;;;;;;;17.30;10.57;;;;;;;;;;5040502;28;20043;-83
2022/10/31 10:50:14;;;;;;;21.00;10.75;;;;;;;;;;5027615;28;20500;-83
2022/10/31 10:52:52;;;;;;;17.15;10.27;;;;;;;;;;5041336;28;20040;-87
2022/10/31 10:55:37;;;;;;;19.73;11.07;;;;;;;;;;5038066;28;20186;-86
2022/10/31 10:58:06;;;;;;;19.70;10.55;;;;;;;;;;5032149;28;20488;-86
2022/10/31 11:00:36;;;;;;;17.60;9.48;;;;;;;;;;5035474;28;20036;-86
2022/10/31 11:03:02;;;;;;;22.65;9.85;;;;;;;;;;5041792;28;20369;-87
2022/10/31 11:05:34;;;;;;;16.60;9.80;;;;;;;;;;5029128;28;20044;-86
2022/10/31 11:08:00;;;;;;;15.45;9.30;;;;;;;;;;5030056;28;20364;-86
2022/10/31 11:10:25;;;;;;;15.32;9.30;;;;;;;;;;5027294;28;20042;-86
2022/10/31 11:13:09;;;;;;;14.15;8.75;;;;;;;;;;5024550;28;20041;-89
2022/10/31 11:15:48;;;;;;;14.52;8.75;;;;;;;;;;5034013;28;20504;-89
2022/10/31 11:18:21;;;;;;;14.45;8.40;;;;;;;;;;5026621;28;20041;-90
2022/10/31 11:20:52;;;;;;;15.75;8.98;;;;;;;;;;5019911;28;20032;-87
2022/10/31 11:23:19;;;;;;;15.40;8.05;;;;;;;;;;5027709;28;20037;-90
2022/10/31 11:26:05;;;;;;;14.13;7.82;;;;;;;;;;5041494;28;20029;-90
2022/10/31 11:28:37;;;;;;;14.30;7.50;;;;;;;;;;5019473;28;20036;-90
2022/10/31 11:31:13;;;;;;;12.88;7.22;;;;;;;;;;5007749;28;20033;-90
2022/10/31 11:33:55;;;;;;;12.20;7.07;;;;;;;;;;5033544;28;20578;-91
2022/10/31 11:36:33;;;;;;;11.23;7.07;;;;;;;;;;5019783;28;20032;-88
2022/10/31 11:39:00;;;;;;;11.38;6.63;;;;;;;;;;5020663;28;20037;-87
2022/10/31 11:41:28;;;;;;;11.48;6.65;;;;;;;;;;5032966;28;20384;-88
2022/10/31 11:44:01;;;;;;;13.93;7.18;;;;;;;;;;5013013;28;20112;-86
2022/10/31 11:46:34;;;;;;;12.10;7.28;;;;;;;;;;5006999;28;20547;-87
2022/10/31 11:49:00;;;;;;;15.55;7.75;;;;;;;;;;5019809;28;20091;-87
2022/10/31 11:51:29;;;;;;;13.25;8.23;;;;;;;;;;5028380;28;20029;-87
2022/10/31 11:53:58;;;;;;;11.55;6.70;;;;;;;;;;5034765;28;20037;-86
2022/10/31 11:56:23;;;;;;;12.27;6.55;;;;;;;;;;5034307;28;20033;-87
2022/10/31 11:59:02;;;;;;;11.88;7.45;;;;;;;;;;5039322;28;20094;-86
2022/10/31 12:01:29;;;;;;;13.05;6.90;;;;;;;;;;5029946;28;20056;-87
2022/10/31 12:04:05;;;;;;;17.73;7.20;;;;;;;;;;5041795;28;20451;-87
2022/10/31 12:06:36;;;;;;;14.80;6.75;;;;;;;;;;5012698;28;20052;-85
2022/10/31 12:09:02;;;;;;;11.60;7.30;;;;;;;;;;5013281;28;20478;-86
2022/10/31 12:12:12;;;;;;;14.75;8.13;;;;;;;;;;5028777;28;20140;-87
2022/10/31 12:14:51;;;;;;;11.25;7.22;;;;;;;;;;5042872;28;20049;-87
2022/10/31 12:17:34;;;;;;;15.13;8.30;;;;;;;;;;5045743;28;20550;-84
2022/10/31 12:20:16;;;;;;;12.13;7.30;;;;;;;;;;5029647;28;20033;-83
2022/10/31 12:23:03;;;;;;;13.60;7.63;;;;;;;;;;5018692;28;20107;-85
2022/10/31 12:25:31;;;;;;;;;;;;;;;;;;5046524;28;20041;-85
2022/10/31 12:28:17;;;;;;;35.47;20.52;;;;;;;;;;5029344;28;20356;-84
2022/10/31 12:30:57;;;;;;;39.45;24.38;;;;;;;;;;5030925;28;20040;-85
2022/10/31 12:33:26;;;;;;;68.82;38.38;;;;;;;;;;5045092;28;20041;-85
2022/10/31 12:35:55;;;;;;;41.00;24.15;;;;;;;;;;5012160;28;20041;-86
2022/10/31 12:38:35;;;;;;;55.42;30.92;;;;;;;;;;5027150;28;20116;-85
2022/10/31 12:41:05;;;;;;;47.22;26.05;;;;;;;;;;5026698;28;20044;-85
2022/10/31 12:43:57;;;;;;;21.85;10.15;;;;;;;;;;5044725;28;20427;-86
2022/10/31 12:46:34;;;;;;;23.52;12.60;;;;;;;;;;5027309;28;20124;-86
2022/10/31 12:49:53;;;;;;;16.50;9.37;;;;;;;;;;5045840;28;20033;-86
2022/10/31 12:52:31;;;;;;;18.92;10.55;;;;;;;;;;4944963;28;20050;-86
2022/10/31 12:54:59;;;;;;;;;;;;;;;;;;5015130;28;20044;-85
2022/10/31 12:57:24;;;;;;;23.58;12.02;;;;;;;;;;5028384;28;20394;-86
2022/10/31 13:00:02;;;;;;;16.57;9.83;;;;;;;;;;5029278;28;20033;-85
2022/10/31 13:03:13;;;;;;;16.45;9.57;;;;;;;;;;5030435;28;20275;-85
2022/10/31 13:05:44;;;;;;;16.00;9.32;;;;;;;;;;5041711;28;20044;-85
2022/10/31 13:08:16;;;;;;;13.63;9.43;;;;;;;;;;5024145;28;20033;-85
2022/10/31 13:10:45;;;;;;;17.00;8.27;;;;;;;;;;5046057;28;20124;-85
2022/10/31 13:13:23;;;;;;;17.58;8.77;;;;;;;;;;5039146;28;20041;-85
2022/10/31 13:15:54;;;;;;;18.80;8.85;;;;;;;;;;5035205;28;20040;-86
2022/10/31 13:18:30;;;;;;;14.45;8.23;;;;;;;;;;5021719;28;20032;-85
2022/10/31 13:20:58;;;;;;;16.38;8.70;;;;;;;;;;5021617;28;20060;-85
2022/10/31 13:23:31;;;;;;;16.45;8.40;;;;;;;;;;5028367;28;20151;-86
2022/10/31 13:26:00;;;;;;;16.48;9.27;;;;;;;;;;5037662;28;20103;-85
2022/10/31 13:28:37;;;;;;;15.80;9.30;;;;;;;;;;5022198;28;20040;-86
2022/10/31 13:31:03;;;;;;;;;;;;;;;;;;5039939;28;20109;-85
2022/10/31 13:33:35;;;;;;;14.85;8.50;;;;;;;;;;5035271;28;20290;-85
2022/10/31 13:36:16;;;;;;;15.18;8.27;;;;;;;;;;5045303;28;20056;-85
2022/10/31 13:39:13;;;;;;;13.40;7.88;;;;;;;;;;5038800;28;20443;-85
2022/10/31 13:41:53;;;;;;;14.57;8.32;;;;;;;;;;5036990;28;20061;-86
2022/10/31 13:44:24;;;;;;;15.82;9.07;;;;;;;;;;5044944;28;20036;-85
2022/10/31 13:46:50;;;;;;;19.17;10.40;;;;;;;;;;5044789;28;20032;-86
2022/10/31 13:49:28;;;;;;;15.40;8.55;;;;;;;;;;5018929;28;20065;-86
2022/10/31 13:52:11;;;;;;;18.10;10.15;;;;;;;;;;5037689;28;20040;-86
2022/10/31 13:54:44;;;;;;;21.50;11.23;;;;;;;;;;5037911;28;20403;-86
2022/10/31 13:57:25;;;;;;;18.25;11.07;;;;;;;;;;5029380;28;20396;-86
2022/10/31 13:59:56;;;;;;;19.65;11.10;;;;;;;;;;5031283;28;20103;-86
2022/10/31 14:02:33;;;;;;;18.02;11.05;;;;;;;;;;5021385;28;20503;-85
2022/10/31 14:05:06;;;;;;;17.92;11.18;;;;;;;;;;5021467;28;20040;-86
2022/10/31 14:07:32;;;;;;;22.75;12.32;;;;;;;;;;5034196;28;20502;-86
2022/10/31 14:10:33;;;;;;;19.98;11.73;;;;;;;;;;5022755;28;20037;-86
2022/10/31 14:13:07;;;;;;;22.27;12.75;;;;;;;;;;5020228;28;20052;-86
2022/10/31 14:15:32;;;;;;;23.13;12.65;;;;;;;;;;5028774;28;20033;-85
2022/10/31 14:18:01;;;;;;;22.60;12.95;;;;;;;;;;5020843;28;20076;-86
2022/10/31 14:20:53;;;;;;;24.85;14.55;;;;;;;;;;5024726;28;20400;-86
2022/10/31 14:23:33;;;;;;;23.92;13.57;;;;;;;;;;5031215;28;20037;-86
2022/10/31 14:26:17;;;;;;;21.92;13.60;;;;;;;;;;5052438;28;20115;-86
2022/10/31 14:28:43;;;;;;;26.13;14.93;;;;;;;;;;5045796;28;20552;-86
2022/10/31 14:31:37;;;;;;;28.13;15.18;;;;;;;;;;5028496;28;20156;-85
2022/10/31 14:34:26;;;;;;;26.02;15.20;;;;;;;;;;5039281;28;20396;-85
2022/10/31 14:37:28;;;;;;;27.25;16.25;;;;;;;;;;5028355;28;20025;-85
2022/10/31 14:40:06;;;;;;;24.80;14.73;;;;;;;;;;5037315;28;20102;-85
2022/10/31 14:42:41;;;;;;;;;;;;;;;;;;5038138;28;20036;-85
2022/10/31 14:45:36;;;;;;;27.40;15.25;;;;;;;;;;5038655;28;20059;-85
2022/10/31 14:48:26;;;;;;;29.27;15.73;;;;;;;;;;5052128;28;20170;-86
2022/10/31 14:50:54;;;;;;;25.88;13.63;;;;;;;;;;5052414;28;20037;-87
2022/10/31 14:53:45;;;;;;;;;;;;;;;;;;5021363;28;20468;-86
2022/10/31 14:56:11;;;;;;;28.20;15.95;;;;;;;;;;5041312;28;19912;-86